Hickman, Nebraska
Current Conditions -  °F | °C
As of 9:54 PM on Friday 24 Oct 2014 (Local Time) from KLNK Reporting Station
Clear Clear  
Wind Chill: 57°   Ceiling: Unl
Heat Index: 57°   Visibility: 10mi
Dew Point: 51°   Wind: 3mph
Humidity: 81%   Direction: 330°NNW
Pressure: 30.01"   Gusts: NA
Location:  40.62°N, 96.63°W
Report Text: KLNK 250254Z AUTO 33003KT 10SM CLR 14/11 A3001 RMK AO2 SLP158 T01390106 53018
Loading
Personal Weather Stations






























Interactive Weather Map
Tropical Storm Tracking
New forecast layout! Learn more

10-Day Weather Forecast

Advertisements
Track Severe Weather on mobile